sensor_id;sensor_type;location;lat;lon;timestamp;P1;durP1;ratioP1;P2;durP2;ratioP2
8803;SDS011;4438;50.890;4.726;2023-06-19T00:00:32;6.23;;;4.90;;
8803;SDS011;4438;50.890;4.726;2023-06-19T00:02:58;5.33;;;4.83;;
8803;SDS011;4438;50.890;4.726;2023-06-19T00:05:25;5.40;;;4.83;;
8803;SDS011;4438;50.890;4.726;2023-06-19T00:07:51;5.07;;;4.57;;
8803;SDS011;4438;50.890;4.726;2023-06-19T00:10:17;6.70;;;5.60;;
8803;SDS011;4438;50.890;4.726;2023-06-19T00:12:43;5.90;;;5.30;;
8803;SDS011;4438;50.890;4.726;2023-06-19T00:15:10;5.90;;;5.37;;
8803;SDS011;4438;50.890;4.726;2023-06-19T00:17:36;6.07;;;5.47;;
8803;SDS011;4438;50.890;4.726;2023-06-19T00:20:03;5.33;;;4.83;;
8803;SDS011;4438;50.890;4.726;2023-06-19T00:22:30;5.43;;;4.83;;
8803;SDS011;4438;50.890;4.726;2023-06-19T00:24:56;4.97;;;4.57;;
8803;SDS011;4438;50.890;4.726;2023-06-19T00:27:23;12.33;;;5.00;;
8803;SDS011;4438;50.890;4.726;2023-06-19T00:29:50;5.40;;;4.90;;
8803;SDS011;4438;50.890;4.726;2023-06-19T00:32:16;5.10;;;4.63;;
8803;SDS011;4438;50.890;4.726;2023-06-19T00:34:42;6.40;;;4.83;;
8803;SDS011;4438;50.890;4.726;2023-06-19T00:37:09;5.00;;;4.50;;
8803;SDS011;4438;50.890;4.726;2023-06-19T00:39:38;6.17;;;4.67;;
8803;SDS011;4438;50.890;4.726;2023-06-19T00:42:05;7.33;;;5.00;;
8803;SDS011;4438;50.890;4.726;2023-06-19T00:44:31;5.33;;;4.83;;
8803;SDS011;4438;50.890;4.726;2023-06-19T00:46:58;5.57;;;5.07;;
8803;SDS011;4438;50.890;4.726;2023-06-19T00:49:25;5.33;;;4.83;;
8803;SDS011;4438;50.890;4.726;2023-06-19T00:51:51;5.47;;;4.83;;
8803;SDS011;4438;50.890;4.726;2023-06-19T01:26:12;5.10;;;4.70;;
8803;SDS011;4438;50.890;4.726;2023-06-19T01:28:42;5.13;;;4.60;;
8803;SDS011;4438;50.890;4.726;2023-06-19T01:31:11;5.27;;;4.77;;
8803;SDS011;4438;50.890;4.726;2023-06-19T01:33:38;5.70;;;5.20;;
8803;SDS011;4438;50.890;4.726;2023-06-19T01:36:05;5.23;;;4.73;;
8803;SDS011;4438;50.890;4.726;2023-06-19T01:38:32;5.00;;;4.60;;
8803;SDS011;4438;50.890;4.726;2023-06-19T01:40:59;5.77;;;4.53;;
8803;SDS011;4438;50.890;4.726;2023-06-19T01:43:26;5.33;;;4.80;;
8803;SDS011;4438;50.890;4.726;2023-06-19T01:45:53;5.50;;;5.00;;
8803;SDS011;4438;50.890;4.726;2023-06-19T01:48:19;6.27;;;4.80;;
8803;SDS011;4438;50.890;4.726;2023-06-19T01:50:48;5.47;;;4.97;;
8803;SDS011;4438;50.890;4.726;2023-06-19T01:53:15;5.33;;;4.83;;
8803;SDS011;4438;50.890;4.726;2023-06-19T01:55:41;5.20;;;4.80;;
8803;SDS011;4438;50.890;4.726;2023-06-19T01:58:07;5.50;;;5.00;;
8803;SDS011;4438;50.890;4.726;2023-06-19T02:00:33;5.20;;;4.70;;
8803;SDS011;4438;50.890;4.726;2023-06-19T02:03:03;5.40;;;4.90;;
8803;SDS011;4438;50.890;4.726;2023-06-19T02:05:32;5.13;;;4.63;;
8803;SDS011;4438;50.890;4.726;2023-06-19T02:07:59;4.80;;;4.40;;
8803;SDS011;4438;50.890;4.726;2023-06-19T02:10:25;4.83;;;4.43;;
8803;SDS011;4438;50.890;4.726;2023-06-19T02:12:51;4.70;;;4.30;;
8803;SDS011;4438;50.890;4.726;2023-06-19T02:15:17;4.20;;;3.80;;
8803;SDS011;4438;50.890;4.726;2023-06-19T02:17:45;6.90;;;4.40;;
8803;SDS011;4438;50.890;4.726;2023-06-19T02:20:12;6.80;;;4.53;;
8803;SDS011;4438;50.890;4.726;2023-06-19T02:22:38;5.20;;;4.70;;
8803;SDS011;4438;50.890;4.726;2023-06-19T02:25:05;5.40;;;4.90;;
8803;SDS011;4438;50.890;4.726;2023-06-19T02:27:31;4.80;;;4.40;;
8803;SDS011;4438;50.890;4.726;2023-06-19T02:29:57;5.43;;;4.80;;
8803;SDS011;4438;50.890;4.726;2023-06-19T02:32:24;7.63;;;4.60;;
8803;SDS011;4438;50.890;4.726;2023-06-19T02:34:51;5.57;;;4.63;;
8803;SDS011;4438;50.890;4.726;2023-06-19T02:37:17;5.40;;;4.90;;
8803;SDS011;4438;50.890;4.726;2023-06-19T02:39:43;5.83;;;4.50;;
8803;SDS011;4438;50.890;4.726;2023-06-19T02:42:09;5.53;;;4.87;;
8803;SDS011;4438;50.890;4.726;2023-06-19T02:44:35;7.23;;;4.93;;
8803;SDS011;4438;50.890;4.726;2023-06-19T02:47:02;4.97;;;4.57;;
8803;SDS011;4438;50.890;4.726;2023-06-19T02:49:28;5.73;;;5.23;;
8803;SDS011;4438;50.890;4.726;2023-06-19T02:51:54;6.03;;;5.27;;
8803;SDS011;4438;50.890;4.726;2023-06-19T02:54:20;5.63;;;4.93;;
8803;SDS011;4438;50.890;4.726;2023-06-19T02:56:46;5.70;;;5.20;;
8803;SDS011;4438;50.890;4.726;2023-06-19T02:59:12;6.17;;;5.37;;
8803;SDS011;4438;50.890;4.726;2023-06-19T03:01:38;6.17;;;4.90;;
8803;SDS011;4438;50.890;4.726;2023-06-19T03:04:04;6.47;;;5.50;;
8803;SDS011;4438;50.890;4.726;2023-06-19T03:06:30;6.10;;;5.40;;
8803;SDS011;4438;50.890;4.726;2023-06-19T03:08:58;5.93;;;5.37;;
8803;SDS011;4438;50.890;4.726;2023-06-19T03:11:24;7.33;;;6.10;;
8803;SDS011;4438;50.890;4.726;2023-06-19T03:13:51;6.37;;;5.77;;
8803;SDS011;4438;50.890;4.726;2023-06-19T03:16:18;6.83;;;6.20;;
8803;SDS011;4438;50.890;4.726;2023-06-19T03:18:44;8.47;;;6.70;;
8803;SDS011;4438;50.890;4.726;2023-06-19T03:21:10;9.07;;;6.57;;
8803;SDS011;4438;50.890;4.726;2023-06-19T03:23:36;7.37;;;6.70;;
8803;SDS011;4438;50.890;4.726;2023-06-19T03:26:03;8.53;;;7.30;;
8803;SDS011;4438;50.890;4.726;2023-06-19T03:28:29;7.27;;;6.57;;
8803;SDS011;4438;50.890;4.726;2023-06-19T03:30:55;7.80;;;6.90;;
8803;SDS011;4438;50.890;4.726;2023-06-19T03:33:21;6.80;;;6.20;;
8803;SDS011;4438;50.890;4.726;2023-06-19T03:35:47;8.03;;;7.30;;
8803;SDS011;4438;50.890;4.726;2023-06-19T03:38:14;8.00;;;7.30;;
8803;SDS011;4438;50.890;4.726;2023-06-19T03:40:40;7.33;;;6.73;;
8803;SDS011;4438;50.890;4.726;2023-06-19T03:43:06;7.77;;;7.00;;
8803;SDS011;4438;50.890;4.726;2023-06-19T03:45:32;8.00;;;7.23;;
8803;SDS011;4438;50.890;4.726;2023-06-19T03:47:59;8.33;;;7.63;;
8803;SDS011;4438;50.890;4.726;2023-06-19T03:50:25;8.83;;;8.10;;
8803;SDS011;4438;50.890;4.726;2023-06-19T03:52:51;8.27;;;7.47;;
8803;SDS011;4438;50.890;4.726;2023-06-19T03:55:17;8.50;;;7.70;;
8803;SDS011;4438;50.890;4.726;2023-06-19T03:57:43;8.80;;;7.73;;
8803;SDS011;4438;50.890;4.726;2023-06-19T04:00:09;8.27;;;7.47;;
8803;SDS011;4438;50.890;4.726;2023-06-19T04:02:38;8.53;;;7.73;;
8803;SDS011;4438;50.890;4.726;2023-06-19T04:05:05;8.67;;;7.87;;
8803;SDS011;4438;50.890;4.726;2023-06-19T04:07:31;8.50;;;7.80;;
8803;SDS011;4438;50.890;4.726;2023-06-19T04:09:58;9.93;;;8.73;;
8803;SDS011;4438;50.890;4.726;2023-06-19T04:12:24;9.97;;;8.83;;
8803;SDS011;4438;50.890;4.726;2023-06-19T04:14:50;9.40;;;8.40;;
8803;SDS011;4438;50.890;4.726;2023-06-19T04:17:17;8.83;;;8.00;;
8803;SDS011;4438;50.890;4.726;2023-06-19T04:19:43;10.00;;;9.10;;
8803;SDS011;4438;50.890;4.726;2023-06-19T04:22:09;11.23;;;10.23;;
8803;SDS011;4438;50.890;4.726;2023-06-19T04:24:35;13.10;;;12.03;;
8803;SDS011;4438;50.890;4.726;2023-06-19T04:27:01;15.20;;;13.60;;
8803;SDS011;4438;50.890;4.726;2023-06-19T04:29:28;16.30;;;14.70;;
8803;SDS011;4438;50.890;4.726;2023-06-19T04:31:57;14.90;;;13.60;;
8803;SDS011;4438;50.890;4.726;2023-06-19T04:34:24;14.77;;;13.43;;
8803;SDS011;4438;50.890;4.726;2023-06-19T04:36:50;14.50;;;13.10;;
8803;SDS011;4438;50.890;4.726;2023-06-19T04:39:16;14.30;;;12.87;;
8803;SDS011;4438;50.890;4.726;2023-06-19T04:41:43;14.17;;;12.87;;
8803;SDS011;4438;50.890;4.726;2023-06-19T04:44:09;13.93;;;12.73;;
8803;SDS011;4438;50.890;4.726;2023-06-19T04:46:38;12.80;;;11.70;;
8803;SDS011;4438;50.890;4.726;2023-06-19T04:49:05;12.70;;;11.40;;
8803;SDS011;4438;50.890;4.726;2023-06-19T04:51:31;12.30;;;11.30;;
8803;SDS011;4438;50.890;4.726;2023-06-19T04:53:58;11.70;;;10.70;;
8803;SDS011;4438;50.890;4.726;2023-06-19T04:56:24;11.23;;;10.13;;
8803;SDS011;4438;50.890;4.726;2023-06-19T04:58:50;10.00;;;9.20;;
8803;SDS011;4438;50.890;4.726;2023-06-19T05:01:17;10.03;;;9.13;;
8803;SDS011;4438;50.890;4.726;2023-06-19T05:03:45;10.60;;;9.50;;
8803;SDS011;4438;50.890;4.726;2023-06-19T05:06:11;9.80;;;8.97;;
8803;SDS011;4438;50.890;4.726;2023-06-19T05:08:37;10.17;;;9.17;;
8803;SDS011;4438;50.890;4.726;2023-06-19T05:11:03;9.60;;;8.70;;
8803;SDS011;4438;50.890;4.726;2023-06-19T05:13:30;10.63;;;9.60;;
8803;SDS011;4438;50.890;4.726;2023-06-19T05:15:56;10.27;;;9.07;;
8803;SDS011;4438;50.890;4.726;2023-06-19T05:18:22;10.13;;;9.10;;
8803;SDS011;4438;50.890;4.726;2023-06-19T05:20:48;9.87;;;9.07;;
8803;SDS011;4438;50.890;4.726;2023-06-19T05:23:14;9.53;;;8.73;;
8803;SDS011;4438;50.890;4.726;2023-06-19T05:25:40;10.27;;;9.10;;
8803;SDS011;4438;50.890;4.726;2023-06-19T05:28:07;10.13;;;9.13;;
8803;SDS011;4438;50.890;4.726;2023-06-19T05:30:34;10.53;;;9.53;;
8803;SDS011;4438;50.890;4.726;2023-06-19T05:33:00;10.47;;;9.27;;
8803;SDS011;4438;50.890;4.726;2023-06-19T05:35:26;9.97;;;9.07;;
8803;SDS011;4438;50.890;4.726;2023-06-19T05:37:52;10.23;;;9.30;;
8803;SDS011;4438;50.890;4.726;2023-06-19T05:40:18;10.00;;;9.10;;
8803;SDS011;4438;50.890;4.726;2023-06-19T05:42:44;11.10;;;10.07;;
8803;SDS011;4438;50.890;4.726;2023-06-19T05:45:10;10.87;;;9.77;;
8803;SDS011;4438;50.890;4.726;2023-06-19T05:47:37;10.40;;;9.33;;
8803;SDS011;4438;50.890;4.726;2023-06-19T05:50:03;11.60;;;10.50;;
8803;SDS011;4438;50.890;4.726;2023-06-19T05:52:29;10.27;;;9.23;;
8803;SDS011;4438;50.890;4.726;2023-06-19T05:54:55;10.53;;;9.63;;
8803;SDS011;4438;50.890;4.726;2023-06-19T05:57:23;10.67;;;9.60;;
8803;SDS011;4438;50.890;4.726;2023-06-19T05:59:49;10.00;;;8.90;;
8803;SDS011;4438;50.890;4.726;2023-06-19T06:02:19;11.73;;;10.53;;
8803;SDS011;4438;50.890;4.726;2023-06-19T06:04:46;10.23;;;9.33;;
8803;SDS011;4438;50.890;4.726;2023-06-19T06:07:12;11.40;;;10.30;;
8803;SDS011;4438;50.890;4.726;2023-06-19T06:09:38;10.83;;;9.73;;
8803;SDS011;4438;50.890;4.726;2023-06-19T06:12:05;10.60;;;9.33;;
8803;SDS011;4438;50.890;4.726;2023-06-19T06:14:31;11.17;;;9.93;;
8803;SDS011;4438;50.890;4.726;2023-06-19T06:16:57;11.67;;;10.63;;
8803;SDS011;4438;50.890;4.726;2023-06-19T06:19:23;10.70;;;9.80;;
8803;SDS011;4438;50.890;4.726;2023-06-19T06:21:49;11.17;;;10.07;;
8803;SDS011;4438;50.890;4.726;2023-06-19T06:24:16;11.60;;;10.40;;
8803;SDS011;4438;50.890;4.726;2023-06-19T06:26:42;11.37;;;9.90;;
8803;SDS011;4438;50.890;4.726;2023-06-19T06:29:08;11.67;;;10.77;;
8803;SDS011;4438;50.890;4.726;2023-06-19T06:31:34;11.13;;;10.07;;
8803;SDS011;4438;50.890;4.726;2023-06-19T06:34:01;11.77;;;10.57;;
8803;SDS011;4438;50.890;4.726;2023-06-19T06:36:27;10.53;;;9.43;;
8803;SDS011;4438;50.890;4.726;2023-06-19T06:38:53;11.23;;;10.23;;
8803;SDS011;4438;50.890;4.726;2023-06-19T06:41:19;11.50;;;10.43;;
8803;SDS011;4438;50.890;4.726;2023-06-19T06:43:45;10.97;;;9.97;;
8803;SDS011;4438;50.890;4.726;2023-06-19T06:46:11;10.97;;;9.97;;
8803;SDS011;4438;50.890;4.726;2023-06-19T06:48:37;11.77;;;10.10;;
8803;SDS011;4438;50.890;4.726;2023-06-19T06:51:04;10.37;;;9.30;;
8803;SDS011;4438;50.890;4.726;2023-06-19T06:53:31;11.77;;;10.63;;
8803;SDS011;4438;50.890;4.726;2023-06-19T06:55:57;10.40;;;9.37;;
8803;SDS011;4438;50.890;4.726;2023-06-19T06:58:24;10.40;;;9.50;;
8803;SDS011;4438;50.890;4.726;2023-06-19T07:00:51;11.17;;;10.20;;
8803;SDS011;4438;50.890;4.726;2023-06-19T07:03:18;10.87;;;9.97;;
8803;SDS011;4438;50.890;4.726;2023-06-19T07:05:44;11.17;;;9.90;;
8803;SDS011;4438;50.890;4.726;2023-06-19T07:08:10;12.60;;;11.30;;
8803;SDS011;4438;50.890;4.726;2023-06-19T07:10:37;13.13;;;11.77;;
8803;SDS011;4438;50.890;4.726;2023-06-19T07:13:03;13.53;;;12.03;;
8803;SDS011;4438;50.890;4.726;2023-06-19T07:15:29;12.63;;;11.53;;
8803;SDS011;4438;50.890;4.726;2023-06-19T07:17:55;13.13;;;11.90;;
8803;SDS011;4438;50.890;4.726;2023-06-19T07:20:21;11.40;;;10.37;;
8803;SDS011;4438;50.890;4.726;2023-06-19T07:22:49;12.37;;;11.00;;
8803;SDS011;4438;50.890;4.726;2023-06-19T07:25:16;12.93;;;11.80;;
8803;SDS011;4438;50.890;4.726;2023-06-19T07:27:42;12.50;;;11.10;;
8803;SDS011;4438;50.890;4.726;2023-06-19T07:30:08;12.97;;;11.77;;
8803;SDS011;4438;50.890;4.726;2023-06-19T07:32:36;11.53;;;10.53;;
8803;SDS011;4438;50.890;4.726;2023-06-19T07:35:02;12.43;;;11.33;;
8803;SDS011;4438;50.890;4.726;2023-06-19T07:37:28;11.80;;;10.60;;
8803;SDS011;4438;50.890;4.726;2023-06-19T07:39:54;12.77;;;11.23;;
8803;SDS011;4438;50.890;4.726;2023-06-19T07:42:21;11.80;;;10.40;;
8803;SDS011;4438;50.890;4.726;2023-06-19T07:44:47;11.20;;;10.20;;
8803;SDS011;4438;50.890;4.726;2023-06-19T07:47:15;11.33;;;9.67;;
8803;SDS011;4438;50.890;4.726;2023-06-19T07:49:41;11.23;;;10.23;;
8803;SDS011;4438;50.890;4.726;2023-06-19T07:52:07;11.23;;;10.03;;
8803;SDS011;4438;50.890;4.726;2023-06-19T07:54:47;11.57;;;10.47;;
8803;SDS011;4438;50.890;4.726;2023-06-19T07:57:13;11.37;;;10.37;;
8803;SDS011;4438;50.890;4.726;2023-06-19T07:59:39;11.33;;;10.23;;
8803;SDS011;4438;50.890;4.726;2023-06-19T08:02:05;11.40;;;9.80;;
8803;SDS011;4438;50.890;4.726;2023-06-19T08:04:31;11.47;;;10.30;;
8803;SDS011;4438;50.890;4.726;2023-06-19T08:06:58;11.40;;;10.40;;
8803;SDS011;4438;50.890;4.726;2023-06-19T08:09:24;10.90;;;9.80;;
8803;SDS011;4438;50.890;4.726;2023-06-19T08:11:50;11.13;;;10.03;;
8803;SDS011;4438;50.890;4.726;2023-06-19T08:14:16;10.50;;;9.43;;
8803;SDS011;4438;50.890;4.726;2023-06-19T08:16:42;11.00;;;9.90;;
8803;SDS011;4438;50.890;4.726;2023-06-19T08:19:08;11.60;;;10.43;;
8803;SDS011;4438;50.890;4.726;2023-06-19T08:21:34;11.17;;;10.13;;
8803;SDS011;4438;50.890;4.726;2023-06-19T08:24:00;11.43;;;10.43;;
8803;SDS011;4438;50.890;4.726;2023-06-19T08:26:26;10.93;;;9.93;;
8803;SDS011;4438;50.890;4.726;2023-06-19T08:28:53;10.17;;;9.17;;
8803;SDS011;4438;50.890;4.726;2023-06-19T08:31:19;10.77;;;9.73;;
8803;SDS011;4438;50.890;4.726;2023-06-19T08:33:47;11.57;;;10.40;;
8803;SDS011;4438;50.890;4.726;2023-06-19T08:36:16;10.03;;;9.13;;
8803;SDS011;4438;50.890;4.726;2023-06-19T08:38:42;13.33;;;10.43;;
8803;SDS011;4438;50.890;4.726;2023-06-19T08:41:08;11.77;;;10.67;;
8803;SDS011;4438;50.890;4.726;2023-06-19T08:43:34;10.23;;;9.23;;
8803;SDS011;4438;50.890;4.726;2023-06-19T08:46:10;10.53;;;9.63;;
8803;SDS011;4438;50.890;4.726;2023-06-19T08:48:37;11.27;;;10.27;;
8803;SDS011;4438;50.890;4.726;2023-06-19T08:51:03;10.57;;;9.67;;
8803;SDS011;4438;50.890;4.726;2023-06-19T08:53:34;11.30;;;10.27;;
8803;SDS011;4438;50.890;4.726;2023-06-19T08:56:03;11.03;;;10.03;;
8803;SDS011;4438;50.890;4.726;2023-06-19T08:58:29;11.50;;;10.50;;
8803;SDS011;4438;50.890;4.726;2023-06-19T09:00:57;10.87;;;9.77;;
8803;SDS011;4438;50.890;4.726;2023-06-19T09:03:24;10.73;;;9.73;;
8803;SDS011;4438;50.890;4.726;2023-06-19T09:05:50;11.90;;;10.70;;
8803;SDS011;4438;50.890;4.726;2023-06-19T09:08:17;11.67;;;10.53;;
8803;SDS011;4438;50.890;4.726;2023-06-19T09:10:53;11.57;;;10.57;;
8803;SDS011;4438;50.890;4.726;2023-06-19T09:13:20;11.23;;;10.13;;
8803;SDS011;4438;50.890;4.726;2023-06-19T09:15:46;12.67;;;11.53;;
8803;SDS011;4438;50.890;4.726;2023-06-19T09:18:12;11.13;;;10.13;;
8803;SDS011;4438;50.890;4.726;2023-06-19T09:20:39;11.03;;;9.97;;
8803;SDS011;4438;50.890;4.726;2023-06-19T09:23:12;12.37;;;11.17;;
8803;SDS011;4438;50.890;4.726;2023-06-19T09:25:52;11.27;;;10.13;;
8803;SDS011;4438;50.890;4.726;2023-06-19T09:28:21;10.20;;;9.30;;
8803;SDS011;4438;50.890;4.726;2023-06-19T09:30:57;11.13;;;10.13;;
8803;SDS011;4438;50.890;4.726;2023-06-19T09:33:24;10.50;;;9.50;;
8803;SDS011;4438;50.890;4.726;2023-06-19T09:35:51;10.47;;;9.47;;
8803;SDS011;4438;50.890;4.726;2023-06-19T09:38:19;11.67;;;10.50;;
8803;SDS011;4438;50.890;4.726;2023-06-19T09:40:47;10.93;;;9.90;;
8803;SDS011;4438;50.890;4.726;2023-06-19T09:43:15;9.93;;;8.93;;
8803;SDS011;4438;50.890;4.726;2023-06-19T09:45:48;10.53;;;9.53;;
8803;SDS011;4438;50.890;4.726;2023-06-19T09:48:16;11.20;;;10.10;;
8803;SDS011;4438;50.890;4.726;2023-06-19T09:50:43;10.50;;;9.50;;
8803;SDS011;4438;50.890;4.726;2023-06-19T09:53:10;9.93;;;8.93;;
8803;SDS011;4438;50.890;4.726;2023-06-19T09:55:36;10.17;;;9.13;;
8803;SDS011;4438;50.890;4.726;2023-06-19T09:58:03;9.30;;;8.40;;
8803;SDS011;4438;50.890;4.726;2023-06-19T10:00:30;9.20;;;8.40;;
8803;SDS011;4438;50.890;4.726;2023-06-19T10:02:57;9.77;;;8.77;;
8803;SDS011;4438;50.890;4.726;2023-06-19T10:05:31;9.77;;;8.77;;
8803;SDS011;4438;50.890;4.726;2023-06-19T10:07:58;10.13;;;9.23;;
8803;SDS011;4438;50.890;4.726;2023-06-19T10:10:26;9.87;;;8.87;;
8803;SDS011;4438;50.890;4.726;2023-06-19T10:12:56;9.17;;;8.27;;
8803;SDS011;4438;50.890;4.726;2023-06-19T10:15:24;8.83;;;7.93;;
8803;SDS011;4438;50.890;4.726;2023-06-19T10:17:51;10.53;;;9.17;;
8803;SDS011;4438;50.890;4.726;2023-06-19T10:20:21;10.87;;;9.80;;
8803;SDS011;4438;50.890;4.726;2023-06-19T10:22:51;9.37;;;8.37;;
8803;SDS011;4438;50.890;4.726;2023-06-19T10:25:26;10.27;;;9.27;;
8803;SDS011;4438;50.890;4.726;2023-06-19T10:27:53;10.57;;;9.50;;
8803;SDS011;4438;50.890;4.726;2023-06-19T10:30:19;10.60;;;9.50;;
8803;SDS011;4438;50.890;4.726;2023-06-19T10:32:46;10.33;;;9.33;;
8803;SDS011;4438;50.890;4.726;2023-06-19T10:35:12;10.43;;;9.43;;
8803;SDS011;4438;50.890;4.726;2023-06-19T10:37:39;11.43;;;9.70;;
8803;SDS011;4438;50.890;4.726;2023-06-19T10:40:05;10.70;;;9.80;;
8803;SDS011;4438;50.890;4.726;2023-06-19T10:42:38;11.50;;;9.73;;
8803;SDS011;4438;50.890;4.726;2023-06-19T10:45:06;10.47;;;9.47;;
8803;SDS011;4438;50.890;4.726;2023-06-19T10:47:33;10.73;;;9.70;;
8803;SDS011;4438;50.890;4.726;2023-06-19T10:49:59;9.60;;;8.60;;
8803;SDS011;4438;50.890;4.726;2023-06-19T10:52:28;9.73;;;8.73;;
8803;SDS011;4438;50.890;4.726;2023-06-19T10:54:55;10.53;;;8.73;;
8803;SDS011;4438;50.890;4.726;2023-06-19T10:57:28;9.67;;;8.73;;
8803;SDS011;4438;50.890;4.726;2023-06-19T10:59:57;10.33;;;9.30;;
8803;SDS011;4438;50.890;4.726;2023-06-19T11:02:24;9.40;;;8.53;;
8803;SDS011;4438;50.890;4.726;2023-06-19T11:04:56;9.33;;;8.43;;
8803;SDS011;4438;50.890;4.726;2023-06-19T11:07:22;8.90;;;8.07;;
8803;SDS011;4438;50.890;4.726;2023-06-19T11:09:49;8.90;;;8.00;;
8803;SDS011;4438;50.890;4.726;2023-06-19T11:12:19;9.17;;;8.27;;
8803;SDS011;4438;50.890;4.726;2023-06-19T11:14:45;9.63;;;8.40;;
8803;SDS011;4438;50.890;4.726;2023-06-19T11:17:11;8.83;;;7.93;;
8803;SDS011;4438;50.890;4.726;2023-06-19T11:19:38;7.97;;;6.97;;
8803;SDS011;4438;50.890;4.726;2023-06-19T11:22:07;7.67;;;6.97;;
8803;SDS011;4438;50.890;4.726;2023-06-19T11:24:33;7.23;;;6.53;;
8803;SDS011;4438;50.890;4.726;2023-06-19T11:26:59;7.43;;;6.73;;
8803;SDS011;4438;50.890;4.726;2023-06-19T11:29:25;8.17;;;7.37;;
8803;SDS011;4438;50.890;4.726;2023-06-19T11:32:06;9.10;;;7.13;;
8803;SDS011;4438;50.890;4.726;2023-06-19T11:34:33;8.10;;;7.30;;
8803;SDS011;4438;50.890;4.726;2023-06-19T11:37:02;8.10;;;7.30;;
8803;SDS011;4438;50.890;4.726;2023-06-19T11:39:30;7.27;;;6.60;;
8803;SDS011;4438;50.890;4.726;2023-06-19T11:41:58;8.43;;;6.67;;
8803;SDS011;4438;50.890;4.726;2023-06-19T11:44:25;7.47;;;6.43;;
8803;SDS011;4438;50.890;4.726;2023-06-19T11:46:51;7.70;;;6.87;;
8803;SDS011;4438;50.890;4.726;2023-06-19T11:49:22;7.77;;;6.87;;
8803;SDS011;4438;50.890;4.726;2023-06-19T11:51:49;7.53;;;6.77;;
8803;SDS011;4438;50.890;4.726;2023-06-19T11:54:15;7.25;;;6.50;;
8803;SDS011;4438;50.890;4.726;2023-06-19T11:56:41;7.27;;;6.57;;
8803;SDS011;4438;50.890;4.726;2023-06-19T11:59:07;7.10;;;6.40;;
8803;SDS011;4438;50.890;4.726;2023-06-19T12:01:34;7.03;;;6.35;;
8803;SDS011;4438;50.890;4.726;2023-06-19T12:04:01;7.57;;;6.73;;
8803;SDS011;4438;50.890;4.726;2023-06-19T12:06:27;7.97;;;7.17;;
8803;SDS011;4438;50.890;4.726;2023-06-19T12:08:53;6.73;;;6.10;;
8803;SDS011;4438;50.890;4.726;2023-06-19T12:11:20;7.07;;;6.47;;
8803;SDS011;4438;50.890;4.726;2023-06-19T12:13:46;7.00;;;6.40;;
8803;SDS011;4438;50.890;4.726;2023-06-19T12:16:13;7.00;;;6.40;;
8803;SDS011;4438;50.890;4.726;2023-06-19T12:18:39;7.47;;;6.20;;
8803;SDS011;4438;50.890;4.726;2023-06-19T12:21:05;7.47;;;6.78;;
8803;SDS011;4438;50.890;4.726;2023-06-19T12:23:32;7.57;;;6.75;;
8803;SDS011;4438;50.890;4.726;2023-06-19T12:25:58;6.88;;;6.28;;
8803;SDS011;4438;50.890;4.726;2023-06-19T12:28:24;7.28;;;6.57;;
8803;SDS011;4438;50.890;4.726;2023-06-19T12:30:51;7.45;;;6.35;;
8803;SDS011;4438;50.890;4.726;2023-06-19T12:33:18;7.18;;;6.47;;
8803;SDS011;4438;50.890;4.726;2023-06-19T12:35:45;7.00;;;6.30;;
8803;SDS011;4438;50.890;4.726;2023-06-19T12:38:12;6.75;;;5.97;;
8803;SDS011;4438;50.890;4.726;2023-06-19T12:40:38;6.80;;;6.20;;
8803;SDS011;4438;50.890;4.726;2023-06-19T12:43:05;6.95;;;6.10;;
8803;SDS011;4438;50.890;4.726;2023-06-19T12:45:31;7.22;;;6.47;;
8803;SDS011;4438;50.890;4.726;2023-06-19T12:47:57;6.80;;;6.20;;
8803;SDS011;4438;50.890;4.726;2023-06-19T12:50:23;6.50;;;5.90;;
8803;SDS011;4438;50.890;4.726;2023-06-19T12:52:50;6.18;;;5.57;;
8803;SDS011;4438;50.890;4.726;2023-06-19T12:55:16;6.57;;;6.05;;
8803;SDS011;4438;50.890;4.726;2023-06-19T12:57:42;7.00;;;6.00;;
8803;SDS011;4438;50.890;4.726;2023-06-19T13:00:10;6.90;;;6.30;;
8803;SDS011;4438;50.890;4.726;2023-06-19T13:02:37;6.95;;;6.35;;
8803;SDS011;4438;50.890;4.726;2023-06-19T13:05:04;6.38;;;5.72;;
8803;SDS011;4438;50.890;4.726;2023-06-19T13:07:30;6.90;;;6.30;;
8803;SDS011;4438;50.890;4.726;2023-06-19T13:09:57;6.85;;;5.60;;
8803;SDS011;4438;50.890;4.726;2023-06-19T13:12:23;6.80;;;6.20;;
8803;SDS011;4438;50.890;4.726;2023-06-19T13:14:49;7.03;;;6.18;;
8803;SDS011;4438;50.890;4.726;2023-06-19T13:17:15;6.65;;;6.13;;
8803;SDS011;4438;50.890;4.726;2023-06-19T13:19:42;6.63;;;6.13;;
8803;SDS011;4438;50.890;4.726;2023-06-19T13:22:08;6.88;;;6.28;;
8803;SDS011;4438;50.890;4.726;2023-06-19T13:24:34;6.95;;;6.35;;
8803;SDS011;4438;50.890;4.726;2023-06-19T13:27:00;6.45;;;5.88;;
8803;SDS011;4438;50.890;4.726;2023-06-19T13:29:26;5.82;;;5.32;;
8803;SDS011;4438;50.890;4.726;2023-06-19T13:31:52;7.00;;;5.90;;
8803;SDS011;4438;50.890;4.726;2023-06-19T13:34:18;5.90;;;5.30;;
8803;SDS011;4438;50.890;4.726;2023-06-19T13:36:47;6.85;;;5.90;;
8803;SDS011;4438;50.890;4.726;2023-06-19T13:39:13;5.68;;;5.18;;
8803;SDS011;4438;50.890;4.726;2023-06-19T13:41:39;5.78;;;5.32;;
8803;SDS011;4438;50.890;4.726;2023-06-19T13:44:05;6.43;;;5.82;;
8803;SDS011;4438;50.890;4.726;2023-06-19T13:46:31;5.78;;;5.28;;
8803;SDS011;4438;50.890;4.726;2023-06-19T13:48:58;6.43;;;5.90;;
8803;SDS011;4438;50.890;4.726;2023-06-19T13:51:25;6.45;;;5.70;;
8803;SDS011;4438;50.890;4.726;2023-06-19T13:53:52;6.00;;;5.40;;
8803;SDS011;4438;50.890;4.726;2023-06-19T13:56:19;5.80;;;5.30;;
8803;SDS011;4438;50.890;4.726;2023-06-19T13:58:46;5.68;;;5.20;;
8803;SDS011;4438;50.890;4.726;2023-06-19T14:01:12;5.63;;;5.20;;
8803;SDS011;4438;50.890;4.726;2023-06-19T14:03:38;5.95;;;5.45;;
8803;SDS011;4438;50.890;4.726;2023-06-19T14:06:04;6.03;;;5.53;;
8803;SDS011;4438;50.890;4.726;2023-06-19T14:08:31;6.05;;;5.50;;
8803;SDS011;4438;50.890;4.726;2023-06-19T14:10:58;6.45;;;5.80;;
8803;SDS011;4438;50.890;4.726;2023-06-19T14:13:24;6.13;;;5.63;;
8803;SDS011;4438;50.890;4.726;2023-06-19T14:15:50;6.10;;;5.18;;
8803;SDS011;4438;50.890;4.726;2023-06-19T14:18:17;6.13;;;5.43;;
8803;SDS011;4438;50.890;4.726;2023-06-19T14:20:44;5.72;;;5.22;;
8803;SDS011;4438;50.890;4.726;2023-06-19T14:23:10;5.70;;;5.25;;
8803;SDS011;4438;50.890;4.726;2023-06-19T14:25:37;5.45;;;5.00;;
8803;SDS011;4438;50.890;4.726;2023-06-19T14:28:03;5.43;;;4.90;;
8803;SDS011;4438;50.890;4.726;2023-06-19T14:30:32;5.80;;;5.30;;
8803;SDS011;4438;50.890;4.726;2023-06-19T14:32:58;5.97;;;5.47;;
8803;SDS011;4438;50.890;4.726;2023-06-19T14:35:24;5.95;;;5.43;;
8803;SDS011;4438;50.890;4.726;2023-06-19T14:37:50;6.03;;;5.47;;
8803;SDS011;4438;50.890;4.726;2023-06-19T14:40:16;6.32;;;5.72;;
8803;SDS011;4438;50.890;4.726;2023-06-19T14:42:43;6.22;;;5.05;;
8803;SDS011;4438;50.890;4.726;2023-06-19T14:45:09;6.30;;;5.75;;
8803;SDS011;4438;50.890;4.726;2023-06-19T14:47:35;6.00;;;5.43;;
8803;SDS011;4438;50.890;4.726;2023-06-19T14:50:01;6.22;;;5.63;;
8803;SDS011;4438;50.890;4.726;2023-06-19T14:52:28;6.10;;;5.60;;
8803;SDS011;4438;50.890;4.726;2023-06-19T14:54:55;5.53;;;5.03;;
8803;SDS011;4438;50.890;4.726;2023-06-19T14:57:21;5.53;;;5.13;;
8803;SDS011;4438;50.890;4.726;2023-06-19T14:59:47;5.63;;;4.72;;
8803;SDS011;4438;50.890;4.726;2023-06-19T15:02:13;5.70;;;5.13;;
8803;SDS011;4438;50.890;4.726;2023-06-19T15:04:39;5.10;;;4.57;;
8803;SDS011;4438;50.890;4.726;2023-06-19T15:07:05;5.53;;;5.13;;
8803;SDS011;4438;50.890;4.726;2023-06-19T15:09:32;5.40;;;4.90;;
8803;SDS011;4438;50.890;4.726;2023-06-19T15:11:58;5.13;;;4.63;;
8803;SDS011;4438;50.890;4.726;2023-06-19T15:14:24;5.75;;;5.15;;
8803;SDS011;4438;50.890;4.726;2023-06-19T15:16:50;5.45;;;4.95;;
8803;SDS011;4438;50.890;4.726;2023-06-19T15:19:16;6.00;;;5.53;;
8803;SDS011;4438;50.890;4.726;2023-06-19T15:21:42;5.03;;;4.63;;
8803;SDS011;4438;50.890;4.726;2023-06-19T15:24:08;5.72;;;5.10;;
8803;SDS011;4438;50.890;4.726;2023-06-19T15:26:34;5.65;;;5.00;;
8803;SDS011;4438;50.890;4.726;2023-06-19T15:29:01;5.28;;;4.78;;
8803;SDS011;4438;50.890;4.726;2023-06-19T15:31:28;5.30;;;4.88;;
8803;SDS011;4438;50.890;4.726;2023-06-19T15:33:54;5.32;;;4.93;;
8803;SDS011;4438;50.890;4.726;2023-06-19T15:36:20;5.55;;;5.15;;